Time;durP1;ratioP1;P1;durP2;ratioP2;P2;SDS_P1;SDS_P2;PMS_P1;PMS_P2;Temp;Humidity;BMP_temperature;BMP_pressure;BME280_temperature;BME280_humidity;BME280_pressure;Samples;Min_cycle;Max_cycle;Signal;HPM_P1;HPM_P2
2024/02/29 00:00:44;;;;;;;165.70;156.10;;;12.30;99.90;;;;;;5094604;28;20032;-78
2024/02/29 00:03:10;;;;;;;157.02;148.15;;;12.30;99.90;;;;;;5109765;28;20039;-78
2024/02/29 00:05:36;;;;;;;161.23;152.13;;;12.30;99.90;;;;;;5103084;28;20031;-77
2024/02/29 00:08:03;;;;;;;191.98;180.60;;;12.30;99.90;;;;;;5095344;28;20044;-78
2024/02/29 00:10:29;;;;;;;176.98;167.05;;;12.30;99.90;;;;;;5093487;28;20048;-78
2024/02/29 00:12:55;;;;;;;172.02;162.07;;;12.30;99.90;;;;;;5094918;28;20390;-78
2024/02/29 00:15:22;;;;;;;173.95;164.15;;;12.30;99.90;;;;;;5094420;28;20028;-78
2024/02/29 00:17:48;;;;;;;197.27;185.43;;;12.30;99.90;;;;;;5095079;28;20016;-78
2024/02/29 00:20:14;;;;;;;174.18;164.43;;;12.30;99.90;;;;;;5094636;28;20035;-78
2024/02/29 00:22:41;;;;;;;152.65;144.07;;;12.30;99.90;;;;;;5093458;28;20040;-78
2024/02/29 00:25:08;;;;;;;179.95;169.75;;;12.20;99.90;;;;;;5101302;28;20036;-78
2024/02/29 00:27:34;;;;;;;176.10;165.85;;;12.30;99.90;;;;;;5114796;28;20054;-78
2024/02/29 00:30:00;;;;;;;195.60;184.30;;;12.20;99.90;;;;;;5113807;28;20032;-78
2024/02/29 00:32:26;;;;;;;196.50;185.02;;;12.20;99.90;;;;;;5114417;28;20080;-78
2024/02/29 00:34:52;;;;;;;207.07;194.77;;;12.20;99.90;;;;;;5115188;28;20027;-78
2024/02/29 00:37:18;;;;;;;196.20;184.63;;;12.20;99.90;;;;;;5110160;28;20039;-78
2024/02/29 00:39:44;;;;;;;196.32;184.95;;;12.20;99.90;;;;;;5094568;28;20024;-78
2024/02/29 00:42:10;;;;;;;190.32;179.13;;;12.20;99.90;;;;;;5093778;28;20028;-78
2024/02/29 00:44:36;;;;;;;176.85;166.07;;;12.20;99.90;;;;;;5094579;28;20043;-74
2024/02/29 00:47:02;;;;;;;185.20;173.70;;;12.10;99.90;;;;;;5092511;28;20493;-73
2024/02/29 00:49:28;;;;;;;178.85;167.77;;;12.10;99.90;;;;;;5095436;28;20032;-75
2024/02/29 00:51:54;;;;;;;180.23;169.32;;;12.10;99.90;;;;;;5099337;28;20040;-74
2024/02/29 00:54:24;;;;;;;187.85;176.32;;;12.10;99.90;;;;;;5094424;28;20028;-77
2024/02/29 00:56:51;;;;;;;151.05;141.98;;;12.10;99.90;;;;;;5101867;28;20031;-76
2024/02/29 00:59:17;;;;;;;169.32;159.23;;;12.10;99.90;;;;;;5113574;28;20032;-74
2024/02/29 01:01:43;;;;;;;170.40;160.38;;;12.00;99.90;;;;;;5101409;28;20474;-76
2024/02/29 01:04:09;;;;;;;196.60;184.35;;;12.10;99.90;;;;;;5074087;28;20039;-76
2024/02/29 01:06:35;;;;;;;192.30;180.23;;;12.10;99.90;;;;;;5093554;28;20028;-76
2024/02/29 01:09:01;;;;;;;229.10;214.98;;;12.10;99.90;;;;;;5094175;28;20055;-76
2024/02/29 01:11:28;;;;;;;201.45;189.98;;;12.10;99.90;;;;;;5093192;28;20051;-76
2024/02/29 01:13:54;;;;;;;224.07;210.50;;;12.10;99.90;;;;;;5092422;28;20040;-77
2024/02/29 01:16:20;;;;;;;228.63;214.82;;;12.10;99.90;;;;;;5098535;28;20036;-76
2024/02/29 01:18:46;;;;;;;234.48;220.10;;;12.20;99.90;;;;;;5094013;28;20028;-76
2024/02/29 01:21:12;;;;;;;239.73;224.70;;;12.20;99.90;;;;;;5093399;28;20035;-76
2024/02/29 01:23:38;;;;;;;207.75;195.02;;;12.20;99.90;;;;;;5099515;28;20031;-76
2024/02/29 01:26:05;;;;;;;233.05;218.65;;;12.20;99.90;;;;;;5105857;28;20046;-76
2024/02/29 01:28:31;;;;;;;259.98;244.27;;;12.20;99.90;;;;;;5105692;28;20473;-75
2024/02/29 01:30:59;;;;;;;199.02;186.85;;;12.10;99.90;;;;;;5105704;28;20044;-76
2024/02/29 01:33:25;;;;;;;197.07;185.30;;;12.10;99.90;;;;;;5093725;28;20039;-76
2024/02/29 01:35:51;;;;;;;212.38;199.13;;;12.10;99.90;;;;;;5093178;28;20032;-77
2024/02/29 01:38:18;;;;;;;200.57;188.00;;;12.20;99.90;;;;;;5092127;28;20043;-76
2024/02/29 01:40:47;;;;;;;190.65;178.95;;;12.20;99.90;;;;;;5097854;28;20032;-76
2024/02/29 01:43:13;;;;;;;200.93;188.18;;;12.10;99.90;;;;;;5093440;28;20383;-76
2024/02/29 01:45:39;;;;;;;203.27;191.25;;;12.10;99.90;;;;;;5092760;28;20501;-78
2024/02/29 01:48:06;;;;;;;211.63;199.15;;;12.10;99.90;;;;;;5093582;28;20043;-75
2024/02/29 01:50:32;;;;;;;198.73;186.88;;;12.10;99.90;;;;;;5094561;28;20056;-77
2024/02/29 01:52:58;;;;;;;174.02;163.43;;;12.20;99.90;;;;;;5112438;28;20038;-77
2024/02/29 01:55:24;;;;;;;186.50;175.65;;;12.20;99.90;;;;;;5109598;28;20035;-77
2024/02/29 01:57:50;;;;;;;166.25;156.00;;;12.20;99.90;;;;;;5093243;28;20028;-77
2024/02/29 02:00:17;;;;;;;177.68;166.63;;;12.20;99.90;;;;;;5090937;28;20032;-77
2024/02/29 02:02:44;;;;;;;202.10;189.13;;;12.20;99.90;;;;;;5092043;28;20463;-77
2024/02/29 02:05:10;;;;;;;158.05;148.60;;;12.10;99.90;;;;;;5090788;28;20046;-77
2024/02/29 02:07:36;;;;;;;169.45;159.45;;;12.10;99.90;;;;;;5093068;28;20032;-77
2024/02/29 02:10:06;;;;;;;166.00;156.57;;;12.10;99.90;;;;;;5092593;28;20403;-77
2024/02/29 02:12:32;;;;;;;186.25;175.07;;;12.10;99.90;;;;;;5092620;28;20382;-77
2024/02/29 02:15:01;;;;;;;223.50;210.32;;;12.10;99.90;;;;;;5092824;28;20036;-77
2024/02/29 02:17:28;;;;;;;196.55;184.57;;;12.10;99.90;;;;;;5107083;28;20063;-77
2024/02/29 02:19:55;;;;;;;187.57;176.35;;;12.10;99.90;;;;;;5113267;28;20031;-77
2024/02/29 02:22:21;;;;;;;182.52;171.95;;;12.10;99.90;;;;;;5093022;28;20039;-77
2024/02/29 02:24:47;;;;;;;172.63;162.55;;;12.10;99.90;;;;;;5092357;28;20521;-77
2024/02/29 02:27:13;;;;;;;180.80;170.13;;;12.10;99.90;;;;;;5092174;28;20032;-77
2024/02/29 02:29:39;;;;;;;184.18;173.07;;;12.10;99.90;;;;;;5092571;28;20500;-77
2024/02/29 02:32:06;;;;;;;200.60;188.80;;;12.10;99.90;;;;;;5108351;28;20035;-77
2024/02/29 02:34:32;;;;;;;172.27;162.18;;;12.10;99.90;;;;;;5100163;28;20375;-77
2024/02/29 02:36:58;;;;;;;181.00;170.57;;;12.00;99.90;;;;;;5104115;28;20024;-78
2024/02/29 02:39:24;;;;;;;182.73;171.70;;;12.10;99.90;;;;;;5112424;28;20478;-78
2024/02/29 02:41:50;;;;;;;173.40;163.00;;;12.20;99.90;;;;;;5096855;28;20028;-77
2024/02/29 02:44:17;;;;;;;175.43;165.18;;;12.10;99.90;;;;;;5092571;28;20485;-77
2024/02/29 02:46:43;;;;;;;182.75;171.57;;;12.10;99.90;;;;;;5091659;28;20036;-77
2024/02/29 02:49:09;;;;;;;190.18;179.32;;;12.20;99.90;;;;;;5092354;28;20039;-78
2024/02/29 02:51:35;;;;;;;172.13;162.10;;;12.20;99.90;;;;;;5099738;28;20063;-77
2024/02/29 02:54:01;;;;;;;188.57;176.98;;;12.20;99.90;;;;;;5107781;28;20474;-77
2024/02/29 02:56:27;;;;;;;191.07;179.30;;;12.20;99.90;;;;;;5101279;28;20044;-77
2024/02/29 02:58:53;;;;;;;198.07;185.65;;;12.10;99.90;;;;;;5092671;28;20032;-77
2024/02/29 03:01:19;;;;;;;169.93;159.82;;;12.10;99.90;;;;;;5101540;28;20040;-77
2024/02/29 03:03:45;;;;;;;209.88;197.35;;;12.10;99.90;;;;;;5088912;28;20243;-77
2024/02/29 03:06:13;;;;;;;186.55;175.15;;;12.10;99.90;;;;;;5085022;28;20047;-77
2024/02/29 03:08:40;;;;;;;236.40;222.25;;;12.10;99.90;;;;;;5096091;28;20039;-77
2024/02/29 03:11:06;;;;;;;217.68;205.02;;;12.10;99.90;;;;;;5107943;28;20419;-77
2024/02/29 03:13:32;;;;;;;202.60;190.90;;;12.20;99.90;;;;;;5102066;28;20040;-77
2024/02/29 03:15:58;;;;;;;221.95;209.15;;;12.20;99.90;;;;;;5097061;28;20501;-77
2024/02/29 03:18:24;;;;;;;233.32;219.60;;;12.20;99.90;;;;;;5111175;28;20031;-77
2024/02/29 03:20:51;;;;;;;243.27;229.32;;;12.20;99.90;;;;;;5109667;28;20043;-77
2024/02/29 03:23:19;;;;;;;228.63;215.40;;;12.20;99.90;;;;;;5105687;28;20028;-78
2024/02/29 03:25:46;;;;;;;223.80;210.88;;;12.20;99.90;;;;;;5090169;28;20036;-77
2024/02/29 03:28:12;;;;;;;200.80;189.18;;;12.20;99.90;;;;;;5107662;28;20050;-77
2024/02/29 03:30:38;;;;;;;222.25;209.73;;;12.20;99.90;;;;;;5105502;28;20052;-77
2024/02/29 03:33:04;;;;;;;200.23;188.60;;;12.20;99.90;;;;;;5090536;28;20032;-77
2024/02/29 03:35:30;;;;;;;200.52;189.18;;;12.10;99.90;;;;;;5092804;28;20051;-72
2024/02/29 03:37:56;;;;;;;203.23;191.77;;;12.20;99.90;;;;;;5098882;28;20028;-72
2024/02/29 03:40:22;;;;;;;247.48;232.48;;;12.20;99.90;;;;;;5091397;28;20036;-72
2024/02/29 03:42:48;;;;;;;206.90;194.98;;;12.20;99.90;;;;;;5091988;28;20032;-72
2024/02/29 03:45:14;;;;;;;185.20;174.57;;;12.20;99.90;;;;;;5091163;28;20055;-72
2024/02/29 03:47:41;;;;;;;183.85;173.18;;;12.10;99.90;;;;;;5091497;28;20043;-73
2024/02/29 03:50:10;;;;;;;183.15;172.38;;;12.10;99.90;;;;;;5091525;28;20032;-72
2024/02/29 03:52:36;;;;;;;182.98;171.57;;;12.10;99.90;;;;;;5081019;28;20052;-72
2024/02/29 03:55:02;;;;;;;190.05;177.65;;;12.10;99.90;;;;;;5091751;28;20025;-72
2024/02/29 03:57:28;;;;;;;170.88;160.38;;;12.10;99.90;;;;;;5091587;28;20036;-71
2024/02/29 03:59:54;;;;;;;175.35;165.00;;;12.10;99.90;;;;;;5100909;28;20484;-72
2024/02/29 04:02:22;;;;;;;222.50;208.52;;;12.10;99.90;;;;;;5093071;28;20041;-72
2024/02/29 04:04:48;;;;;;;213.55;200.75;;;12.10;99.90;;;;;;5093150;28;20012;-73
2024/02/29 04:07:14;;;;;;;212.57;198.75;;;12.10;99.90;;;;;;5095043;28;20039;-72
2024/02/29 04:09:40;;;;;;;193.07;181.57;;;12.20;99.90;;;;;;5095219;28;20035;-72
2024/02/29 04:12:07;;;;;;;226.27;212.63;;;12.20;99.90;;;;;;5098189;28;20482;-71
2024/02/29 04:14:38;;;;;;;238.23;223.57;;;12.10;99.90;;;;;;5094608;28;20494;-72
2024/02/29 04:17:04;;;;;;;;;;;12.10;99.90;;;;;;5094240;28;20035;-72
2024/02/29 04:19:30;;;;;;;176.98;166.10;;;12.10;99.90;;;;;;5094770;28;20358;-72
2024/02/29 04:21:56;;;;;;;207.88;195.68;;;12.10;99.90;;;;;;5094933;28;20028;-72
2024/02/29 04:24:22;;;;;;;212.50;200.18;;;12.10;99.90;;;;;;5095033;28;20028;-71
2024/02/29 04:26:48;;;;;;;228.93;214.80;;;12.10;99.90;;;;;;5099573;28;20040;-72
2024/02/29 04:29:14;;;;;;;220.48;207.45;;;12.20;99.90;;;;;;5104630;28;20027;-72
2024/02/29 04:31:48;;;;;;;226.10;212.48;;;12.20;99.90;;;;;;5101309;28;20056;-72
2024/02/29 04:34:14;;;;;;;216.75;203.82;;;12.10;99.90;;;;;;5093428;28;20024;-72
2024/02/29 04:36:40;;;;;;;210.55;197.77;;;12.10;99.90;;;;;;5093512;28;20484;-72
2024/02/29 04:39:06;;;;;;;179.15;168.50;;;12.20;99.90;;;;;;5094633;28;20035;-77
2024/02/29 04:41:32;;;;;;;184.05;173.27;;;12.10;99.90;;;;;;5098767;28;20346;-77
2024/02/29 04:43:58;;;;;;;197.52;185.98;;;12.10;99.90;;;;;;5095779;28;20028;-77
2024/02/29 04:46:24;;;;;;;229.43;215.85;;;12.10;99.90;;;;;;5104391;28;20401;-77
2024/02/29 04:48:50;;;;;;;241.73;227.20;;;12.10;99.90;;;;;;5093933;28;20024;-76
2024/02/29 04:51:17;;;;;;;249.27;233.75;;;12.10;99.90;;;;;;5103452;28;20374;-77
2024/02/29 04:53:43;;;;;;;245.75;230.10;;;12.10;99.90;;;;;;5114862;28;20034;-77
2024/02/29 04:56:09;;;;;;;242.60;227.55;;;12.10;99.90;;;;;;5107490;28;20488;-77
2024/02/29 04:58:35;;;;;;;235.57;220.55;;;12.10;99.90;;;;;;5107545;28;20023;-77
2024/02/29 05:01:01;;;;;;;274.30;256.73;;;12.10;99.90;;;;;;5098449;28;20028;-77
2024/02/29 05:03:27;;;;;;;260.20;243.20;;;12.10;99.90;;;;;;5094094;28;20047;-77
2024/02/29 05:05:53;;;;;;;264.35;247.73;;;12.10;99.90;;;;;;5093550;28;20228;-77
2024/02/29 05:08:20;;;;;;;239.35;224.13;;;12.20;99.90;;;;;;5094267;28;20032;-77
2024/02/29 05:10:46;;;;;;;246.40;230.32;;;12.20;99.90;;;;;;5093771;28;20402;-77
2024/02/29 05:13:12;;;;;;;235.88;220.20;;;12.20;99.90;;;;;;5094018;28;20060;-77
2024/02/29 05:15:39;;;;;;;227.82;212.80;;;12.10;99.90;;;;;;5105465;28;20586;-77
2024/02/29 05:18:08;;;;;;;230.77;216.07;;;12.10;99.90;;;;;;5093589;28;20032;-77
2024/02/29 05:20:34;;;;;;;238.80;223.95;;;12.10;99.90;;;;;;5097043;28;20031;-77
2024/02/29 05:23:01;;;;;;;246.45;231.32;;;12.10;99.90;;;;;;5110177;28;20047;-76
2024/02/29 05:25:28;;;;;;;225.20;211.55;;;12.10;99.90;;;;;;5113684;28;20038;-76
2024/02/29 05:27:56;;;;;;;227.63;213.70;;;12.10;99.90;;;;;;5114271;28;20036;-76
2024/02/29 05:30:23;;;;;;;230.18;216.52;;;12.10;99.90;;;;;;5113122;28;20035;-76
2024/02/29 05:32:49;;;;;;;229.23;216.00;;;12.10;99.90;;;;;;5107885;28;20051;-76
2024/02/29 05:35:15;;;;;;;210.48;198.30;;;12.10;99.90;;;;;;5111532;28;20038;-78
2024/02/29 05:37:41;;;;;;;241.05;226.50;;;12.10;99.90;;;;;;5094158;28;20032;-77
2024/02/29 05:40:10;;;;;;;242.82;228.23;;;12.10;99.90;;;;;;5093421;28;20501;-76
2024/02/29 05:42:36;;;;;;;216.10;203.23;;;12.20;99.90;;;;;;5073153;28;20044;-77
2024/02/29 05:45:05;;;;;;;223.77;210.68;;;12.20;99.90;;;;;;5073212;28;20044;-76
2024/02/29 05:47:32;;;;;;;228.52;215.13;;;12.20;99.90;;;;;;5089883;28;20055;-76
2024/02/29 05:49:58;;;;;;;238.32;223.45;;;12.10;99.90;;;;;;5092140;28;20466;-77
2024/02/29 05:52:24;;;;;;;206.70;194.98;;;12.10;99.90;;;;;;5092827;28;20071;-76
2024/02/29 05:54:50;;;;;;;244.82;230.40;;;12.10;99.90;;;;;;5093178;28;20024;-76
2024/02/29 05:57:16;;;;;;;252.05;236.80;;;12.10;99.90;;;;;;5092834;28;20039;-76
2024/02/29 05:59:42;;;;;;;233.50;219.80;;;12.10;99.90;;;;;;5093090;28;20035;-76
2024/02/29 06:02:10;;;;;;;254.82;239.68;;;12.20;99.90;;;;;;5091754;28;20482;-76
2024/02/29 06:04:36;;;;;;;252.73;238.27;;;12.10;99.90;;;;;;5093068;28;20024;-76
2024/02/29 06:07:04;;;;;;;252.27;237.57;;;12.10;99.90;;;;;;5107182;28;20031;-76
2024/02/29 06:09:30;;;;;;;278.45;261.67;;;12.10;99.90;;;;;;5113271;28;20028;-76
2024/02/29 06:11:56;;;;;;;252.68;237.48;;;12.20;99.90;;;;;;5112990;28;20040;-76
2024/02/29 06:14:24;;;;;;;231.75;218.60;;;12.20;99.90;;;;;;5113049;28;20417;-76
2024/02/29 06:16:50;;;;;;;266.63;249.98;;;12.20;99.90;;;;;;5097690;28;20032;-76
2024/02/29 06:19:16;;;;;;;247.48;232.15;;;12.20;99.90;;;;;;5092894;28;20024;-76
2024/02/29 06:21:42;;;;;;;225.35;212.15;;;12.20;99.90;;;;;;5092437;28;20035;-76
2024/02/29 06:24:08;;;;;;;220.43;207.55;;;12.30;99.90;;;;;;5092586;28;20036;-76
2024/02/29 06:26:35;;;;;;;241.52;227.40;;;12.20;99.90;;;;;;5096632;28;20024;-76
2024/02/29 06:29:01;;;;;;;234.60;220.57;;;12.20;99.90;;;;;;5092383;28;20051;-76
2024/02/29 06:31:27;;;;;;;235.90;221.38;;;12.20;99.90;;;;;;5090231;28;20044;-76
2024/02/29 06:33:53;;;;;;;229.95;215.25;;;12.30;99.90;;;;;;5092752;28;20039;-76
2024/02/29 06:36:19;;;;;;;246.15;230.13;;;12.20;99.90;;;;;;5097440;28;20046;-77
2024/02/29 06:38:45;;;;;;;222.70;208.77;;;12.30;99.90;;;;;;5094924;28;20485;-73
2024/02/29 06:41:11;;;;;;;235.52;220.55;;;12.20;99.90;;;;;;5093496;28;20039;-72
2024/02/29 06:43:38;;;;;;;272.77;256.05;;;12.30;99.90;;;;;;5091113;28;20463;-71
2024/02/29 06:46:06;;;;;;;236.52;221.75;;;12.30;99.90;;;;;;5091962;28;20036;-72
2024/02/29 06:48:32;;;;;;;270.55;253.68;;;12.20;99.90;;;;;;5092444;28;20043;-72
2024/02/29 06:50:58;;;;;;;244.65;229.60;;;12.20;99.90;;;;;;5100657;28;20039;-72
2024/02/29 06:53:24;;;;;;;195.27;183.82;;;12.10;99.90;;;;;;5112272;28;20496;-72
2024/02/29 06:55:51;;;;;;;212.90;200.32;;;11.90;99.90;;;;;;5112593;28;20031;-72
2024/02/29 06:58:18;;;;;;;175.18;165.35;;;11.90;99.90;;;;;;5110584;28;20039;-71
2024/02/29 07:00:45;;;;;;;143.90;135.80;;;11.70;99.90;;;;;;5104036;28;20470;-72
2024/02/29 07:03:11;;;;;;;166.80;153.60;;;11.70;99.90;;;;;;5092483;28;20047;-72
2024/02/29 07:05:37;;;;;;;177.52;167.20;;;11.70;99.90;;;;;;5092053;28;20016;-72
2024/02/29 07:08:03;;;;;;;219.52;206.15;;;11.70;99.90;;;;;;5092235;28;20036;-72
2024/02/29 07:10:30;;;;;;;182.55;172.02;;;11.80;99.90;;;;;;5088201;28;20028;-72
2024/02/29 07:12:56;;;;;;;203.93;192.15;;;11.80;99.90;;;;;;5075278;28;20045;-72
2024/02/29 07:15:22;;;;;;;167.77;157.73;;;11.70;99.90;;;;;;5090763;28;20027;-72
2024/02/29 07:17:48;;;;;;;193.15;181.93;;;11.70;99.90;;;;;;5091948;28;20028;-72
2024/02/29 07:20:14;;;;;;;485.90;202.43;;;11.80;99.90;;;;;;5088782;28;20028;-72
2024/02/29 07:22:42;;;;;;;195.15;183.27;;;11.80;99.90;;;;;;5091073;28;20031;-72
2024/02/29 07:25:09;;;;;;;204.68;192.05;;;11.90;99.90;;;;;;5084544;28;20040;-72
2024/02/29 07:27:38;;;;;;;209.13;196.35;;;11.90;99.90;;;;;;5083429;28;20036;-72
2024/02/29 07:30:07;;;;;;;214.30;201.25;;;11.90;99.90;;;;;;5088031;28;20370;-72
2024/02/29 07:32:33;;;;;;;213.45;200.75;;;11.90;99.90;;;;;;5107722;28;20056;-72
2024/02/29 07:34:59;;;;;;;182.88;171.73;;;11.90;99.90;;;;;;5103985;28;20028;-72
2024/02/29 07:37:26;;;;;;;212.95;200.57;;;11.90;99.90;;;;;;5090331;28;20502;-72
2024/02/29 07:39:52;;;;;;;196.77;185.57;;;11.90;99.90;;;;;;5089636;28;20032;-77
2024/02/29 07:42:18;;;;;;;191.75;180.45;;;12.00;99.90;;;;;;5094511;28;20501;-77
2024/02/29 07:44:44;;;;;;;198.13;185.95;;;11.90;99.90;;;;;;5095716;28;20016;-78
2024/02/29 07:47:10;;;;;;;208.27;196.02;;;12.00;99.90;;;;;;5094779;28;20106;-78
2024/02/29 07:49:36;;;;;;;193.40;182.25;;;12.00;99.90;;;;;;5095090;28;20028;-78
2024/02/29 07:52:04;;;;;;;191.32;180.00;;;12.00;99.90;;;;;;5093235;28;20047;-78
2024/02/29 07:54:30;;;;;;;189.23;178.32;;;12.00;99.90;;;;;;5095071;28;20022;-78
2024/02/29 07:56:57;;;;;;;186.45;175.82;;;12.10;99.90;;;;;;5094701;28;20028;-78
2024/02/29 07:59:25;;;;;;;180.32;169.48;;;12.10;99.90;;;;;;5095443;28;20024;-78
2024/02/29 08:01:51;;;;;;;169.23;159.07;;;12.00;99.90;;;;;;5087248;28;20039;-78
2024/02/29 08:04:17;;;;;;;194.52;182.80;;;11.90;99.90;;;;;;5092673;28;20031;-79
2024/02/29 08:06:43;;;;;;;224.13;210.60;;;12.00;99.90;;;;;;5092530;28;20390;-76
2024/02/29 08:09:09;;;;;;;209.13;196.50;;;12.00;99.90;;;;;;5090771;28;20039;-81
2024/02/29 08:11:35;;;;;;;171.68;162.07;;;12.10;99.90;;;;;;5097699;28;20035;-79
2024/02/29 08:14:02;;;;;;;206.73;194.95;;;12.20;99.90;;;;;;5083530;28;20044;-79
2024/02/29 08:16:28;;;;;;;214.02;201.20;;;12.20;99.90;;;;;;5090498;28;20040;-79
2024/02/29 08:18:54;;;;;;;209.00;196.77;;;12.20;99.90;;;;;;5086706;28;20385;-79
2024/02/29 08:21:20;;;;;;;198.07;185.45;;;12.20;99.90;;;;;;5092795;28;20030;-79
2024/02/29 08:23:46;;;;;;;227.05;211.63;;;12.10;99.90;;;;;;5094669;28;20426;-79
2024/02/29 08:26:12;;;;;;;216.50;203.63;;;12.10;99.90;;;;;;5094237;28;20040;-81
2024/02/29 08:28:38;;;;;;;173.10;162.85;;;12.10;99.90;;;;;;5092137;28;20516;-79
2024/02/29 08:31:06;;;;;;;193.85;181.70;;;12.10;99.90;;;;;;5081083;28;20032;-79
2024/02/29 08:33:32;;;;;;;187.90;176.90;;;12.10;99.90;;;;;;5094792;28;20032;-78
2024/02/29 08:35:58;;;;;;;175.50;165.13;;;12.20;99.90;;;;;;5094384;28;20047;-79
2024/02/29 08:38:24;;;;;;;178.00;167.07;;;12.20;99.90;;;;;;5075493;28;20032;-78
2024/02/29 08:40:50;;;;;;;177.15;166.27;;;12.20;99.90;;;;;;5079250;28;20024;-78
2024/02/29 08:43:19;;;;;;;191.40;179.68;;;12.20;99.90;;;;;;5094923;28;20036;-72
2024/02/29 08:45:45;;;;;;;151.07;142.32;;;12.30;99.90;;;;;;5093874;28;20020;-71
2024/02/29 08:48:12;;;;;;;196.20;184.50;;;12.20;99.90;;;;;;5094394;28;20377;-72
2024/02/29 08:50:38;;;;;;;164.63;155.40;;;12.20;99.90;;;;;;5092753;28;20019;-72
2024/02/29 08:53:04;;;;;;;160.13;150.75;;;12.30;99.90;;;;;;5094535;28;20047;-72
2024/02/29 08:55:30;;;;;;;197.80;186.60;;;12.40;99.90;;;;;;5092226;28;20031;-72
2024/02/29 08:57:56;;;;;;;143.43;135.50;;;12.50;99.90;;;;;;5094348;28;20098;-72
2024/02/29 09:00:22;;;;;;;141.80;133.98;;;12.40;99.90;;;;;;5095962;28;20040;-72
2024/02/29 09:02:48;;;;;;;162.55;153.35;;;12.40;99.90;;;;;;5094182;28;20024;-73
2024/02/29 09:05:15;;;;;;;219.23;206.00;;;12.40;99.90;;;;;;5094209;28;20024;-72
2024/02/29 09:07:41;;;;;;;191.55;180.57;;;12.40;99.90;;;;;;5110697;28;20094;-72
2024/02/29 09:10:09;;;;;;;205.15;193.00;;;12.40;99.90;;;;;;5107050;28;20027;-73
2024/02/29 09:12:35;;;;;;;187.73;177.00;;;12.40;99.90;;;;;;5093309;28;20044;-72
2024/02/29 09:15:02;;;;;;;187.25;176.85;;;12.40;99.90;;;;;;5092843;28;20036;-72
2024/02/29 09:17:28;;;;;;;215.25;202.73;;;12.30;99.90;;;;;;5092002;28;20094;-72
2024/02/29 09:19:55;;;;;;;205.07;193.50;;;12.20;99.90;;;;;;5091501;28;20037;-73
2024/02/29 09:22:22;;;;;;;215.63;203.50;;;12.30;99.90;;;;;;5091509;28;20070;-74
2024/02/29 09:24:48;;;;;;;206.40;194.68;;;12.30;99.90;;;;;;5079239;28;20033;-73
2024/02/29 09:27:15;;;;;;;206.75;194.63;;;12.30;99.90;;;;;;5068317;28;20056;-74
2024/02/29 09:29:41;;;;;;;181.35;170.93;;;12.30;99.90;;;;;;5081364;28;20032;-74
2024/02/29 09:32:07;;;;;;;152.68;143.73;;;12.30;99.90;;;;;;5108733;28;20413;-74
2024/02/29 09:34:37;;;;;;;175.25;164.77;;;12.30;99.90;;;;;;5114215;28;20024;-74
2024/02/29 09:37:06;;;;;;;181.82;171.10;;;12.30;99.90;;;;;;5113590;28;20031;-74
2024/02/29 09:39:32;;;;;;;173.18;162.98;;;12.30;99.90;;;;;;5105946;28;20032;-74
2024/02/29 09:41:58;;;;;;;192.20;180.95;;;12.30;99.90;;;;;;5107953;28;20031;-74
2024/02/29 09:44:24;;;;;;;178.55;168.32;;;12.30;99.90;;;;;;5105770;28;20036;-74
2024/02/29 09:46:51;;;;;;;170.18;160.65;;;12.30;99.90;;;;;;5112490;28;20050;-78
2024/02/29 09:49:17;;;;;;;191.30;180.88;;;12.40;99.90;;;;;;5094416;28;20024;-78
2024/02/29 09:51:46;;;;;;;220.40;207.70;;;12.50;99.90;;;;;;5111837;28;20031;-78
2024/02/29 09:54:17;;;;;;;262.85;247.57;;;12.60;99.90;;;;;;5111899;28;20462;-78
2024/02/29 09:56:44;;;;;;;249.38;234.90;;;12.60;99.90;;;;;;5110487;28;20041;-75
2024/02/29 09:59:15;;;;;;;258.63;243.77;;;12.50;99.90;;;;;;5093047;28;20425;-79
2024/02/29 10:01:43;;;;;;;231.20;218.38;;;12.60;99.90;;;;;;5069905;28;20028;-79
2024/02/29 10:04:09;;;;;;;261.30;246.32;;;12.60;99.90;;;;;;5081374;28;20028;-79
2024/02/29 10:06:35;;;;;;;219.82;207.27;;;12.70;99.90;;;;;;5104646;28;20385;-79
2024/02/29 10:09:02;;;;;;;258.95;243.98;;;12.80;99.90;;;;;;5110404;28;20020;-79
2024/02/29 10:11:28;;;;;;;241.63;227.70;;;12.70;99.90;;;;;;5092638;28;20043;-78
2024/02/29 10:13:54;;;;;;;261.92;246.75;;;12.80;99.90;;;;;;5092482;28;20043;-78
2024/02/29 10:16:20;;;;;;;310.58;291.73;;;12.90;99.90;;;;;;5087593;28;20036;-79
2024/02/29 10:18:46;;;;;;;314.90;296.17;;;12.90;99.90;;;;;;5072267;28;20044;-79
2024/02/29 10:21:14;;;;;;;289.13;272.38;;;12.90;99.90;;;;;;5084541;28;20036;-79
2024/02/29 10:23:41;;;;;;;315.00;296.27;;;13.00;99.90;;;;;;5075020;28;20021;-79
2024/02/29 10:26:07;;;;;;;266.55;252.27;;;13.00;99.90;;;;;;5091829;28;20036;-80
2024/02/29 10:28:33;;;;;;;336.05;316.90;;;13.10;99.90;;;;;;5091977;28;20401;-79
2024/02/29 10:31:01;;;;;;;337.38;318.33;;;13.10;99.90;;;;;;5089283;28;20067;-79
2024/02/29 10:33:27;;;;;;;260.85;246.40;;;13.20;99.90;;;;;;5092250;28;20389;-78
2024/02/29 10:35:54;;;;;;;291.58;275.60;;;13.20;99.90;;;;;;5089328;28;20047;-79
2024/02/29 10:38:23;;;;;;;248.18;235.05;;;13.40;99.90;;;;;;5090054;28;20047;-79
2024/02/29 10:40:50;;;;;;;378.85;357.45;;;13.50;99.90;;;;;;5087061;28;20024;-79
2024/02/29 10:43:18;;;;;;;327.63;309.60;;;13.70;99.90;;;;;;5091251;28;20028;-79
2024/02/29 10:45:48;;;;;;;1184.97;674.45;;;13.80;99.90;;;;;;5083636;28;20052;-80
2024/02/29 10:48:31;;;;;;;1999.90;999.90;;;13.80;99.90;;;;;;5085057;28;20028;-80
2024/02/29 10:51:16;;;;;;;1999.90;999.90;;;13.90;99.90;;;;;;5076611;28;20485;-78
2024/02/29 10:53:54;;;;;;;1999.90;999.90;;;13.90;99.90;;;;;;5085366;28;20048;-73
2024/02/29 10:56:24;;;;;;;1999.90;999.90;;;14.00;99.90;;;;;;5096823;28;20028;-73
2024/02/29 10:59:03;;;;;;;1999.90;999.90;;;14.00;99.90;;;;;;5094166;28;20521;-73
2024/02/29 11:01:35;;;;;;;1999.90;999.90;;;14.20;99.90;;;;;;5097148;28;20040;-73
2024/02/29 11:04:02;;;;;;;1999.90;999.90;;;14.20;99.90;;;;;;5091976;28;20138;-74
2024/02/29 11:06:49;;;;;;;1999.90;999.90;;;14.30;99.90;;;;;;5092482;28;20043;-73
2024/02/29 11:09:16;;;;;;;1999.90;999.90;;;14.30;99.90;;;;;;5091123;28;20486;-73
2024/02/29 11:11:47;;;;;;;1999.90;999.90;;;14.30;99.90;;;;;;5095716;28;20380;-74
2024/02/29 11:14:15;;;;;;;1999.90;999.90;;;14.20;99.90;;;;;;5092650;28;20051;-73
2024/02/29 11:16:42;;;;;;;1999.90;999.90;;;14.20;99.90;;;;;;5101712;28;20044;-73
2024/02/29 11:19:12;;;;;;;1999.90;999.90;;;14.20;99.90;;;;;;5092065;28;20028;-72
2024/02/29 11:21:38;;;;;;;1999.90;999.90;;;14.20;99.90;;;;;;5109383;28;20106;-73
2024/02/29 11:24:05;;;;;;;1999.90;999.90;;;14.20;99.90;;;;;;5111607;28;20043;-74
2024/02/29 11:26:34;;;;;;;1999.90;999.90;;;14.20;99.90;;;;;;5095336;28;20020;-73
2024/02/29 11:29:19;;;;;;;1999.90;999.90;;;14.20;99.90;;;;;;5096270;28;20035;-73
2024/02/29 11:31:49;;;;;;;1999.90;999.90;;;14.20;99.90;;;;;;5110612;27;20028;-72
2024/02/29 11:34:19;;;;;;;1999.90;999.90;;;14.20;99.90;;;;;;5114888;28;20023;-72
2024/02/29 11:36:47;;;;;;;1999.90;999.90;;;14.10;99.90;;;;;;5102386;27;20047;-72
2024/02/29 11:39:20;;;;;;;1999.90;999.90;;;14.10;99.90;;;;;;5095248;28;20036;-72
2024/02/29 11:41:47;;;;;;;1999.90;999.90;;;14.00;99.90;;;;;;5095428;28;20496;-72
2024/02/29 11:44:13;;;;;;;1999.90;999.90;;;14.00;99.90;;;;;;5094782;28;20486;-72
2024/02/29 11:46:47;;;;;;;1999.90;999.90;;;14.00;99.90;;;;;;5094131;28;20031;-72
2024/02/29 11:49:16;;;;;;;1999.90;999.90;;;14.00;99.90;;;;;;5090311;28;20032;-72
2024/02/29 11:51:43;;;;;;;1999.90;999.90;;;14.10;99.90;;;;;;5089930;28;20031;-72
2024/02/29 11:54:13;;;;;;;1999.90;999.90;;;14.10;99.90;;;;;;5093681;28;20040;-72
2024/02/29 11:56:39;;;;;;;1999.90;999.90;;;14.10;99.90;;;;;;5094400;28;20398;-80
2024/02/29 11:59:06;;;;;;;1999.90;999.90;;;14.20;99.90;;;;;;5093572;28;20036;-80
2024/02/29 12:01:36;;;;;;;1999.90;999.90;;;14.20;99.90;;;;;;5095554;28;20036;-79
2024/02/29 12:04:02;;;;;;;1999.90;999.90;;;14.10;99.90;;;;;;5094397;28;20516;-80
2024/02/29 12:06:28;;;;;;;1999.90;999.90;;;14.10;99.90;;;;;;5104371;28;20024;-80